createdAt,value
2022-12-15T00:03:31.346Z,57.92
2022-12-15T00:13:52.530Z,57.90
2022-12-15T00:24:14.393Z,58.08
2022-12-15T00:34:34.664Z,57.95
2022-12-15T00:44:39.166Z,58.80
2022-12-15T00:54:59.791Z,58.56
2022-12-15T01:05:21.836Z,58.63
2022-12-15T01:15:42.109Z,58.90
2022-12-15T01:25:46.538Z,59.24
2022-12-15T01:35:59.541Z,59.40
2022-12-15T01:46:06.615Z,60.10
2022-12-15T01:56:10.007Z,60.35
2022-12-15T02:06:15.041Z,60.74
2022-12-15T02:16:26.110Z,60.83
2022-12-15T02:27:14.644Z,60.87
2022-12-15T02:37:22.566Z,60.83
2022-12-15T02:47:32.756Z,61.22
2022-12-15T02:57:40.915Z,61.30
2022-12-15T03:07:45.016Z,61.26
2022-12-15T03:17:54.374Z,60.93
2022-12-15T03:27:57.545Z,61.21
2022-12-15T03:38:02.041Z,61.37
2022-12-15T03:48:05.433Z,61.24
2022-12-15T03:58:09.901Z,61.47
2022-12-15T04:08:12.997Z,61.81
2022-12-15T04:18:17.759Z,62.21
2022-12-15T04:28:38.420Z,63.52
2022-12-15T04:39:00.592Z,64.13
2022-12-15T04:49:21.212Z,64.20
2022-12-15T04:59:43.060Z,64.43
2022-12-15T05:10:04.305Z,63.93
2022-12-15T05:20:28.378Z,65.17
2022-12-15T05:30:48.866Z,67.01
2022-12-15T05:40:53.447Z,65.02
2022-12-15T05:50:56.576Z,63.79
2022-12-15T06:01:05.966Z,64.51
2022-12-15T06:11:10.518Z,64.49
2022-12-15T06:21:17.920Z,64.57
2022-12-15T06:31:22.898Z,64.10
2022-12-15T06:41:28.027Z,63.99
2022-12-15T06:51:31.162Z,63.23
2022-12-15T07:01:36.064Z,63.04
2022-12-15T07:11:40.482Z,62.77
2022-12-15T07:21:45.168Z,62.74
2022-12-15T07:31:48.254Z,63.04
2022-12-15T07:41:52.758Z,62.23
2022-12-15T07:51:58.573Z,62.40
2022-12-15T08:02:04.391Z,62.08
2022-12-15T08:12:08.168Z,62.26
2022-12-15T08:22:12.932Z,61.96
2022-12-15T08:32:16.075Z,61.73
2022-12-15T08:42:20.635Z,61.49
2022-12-15T08:52:24.213Z,61.93
2022-12-15T09:02:28.709Z,61.76
2022-12-15T09:12:32.111Z,61.29
2022-12-15T09:22:37.430Z,62.03
2022-12-15T09:32:40.618Z,62.41
2022-12-15T09:42:46.336Z,61.85
2022-12-15T09:52:51.673Z,60.87
2022-12-15T10:03:24.454Z,59.69
2022-12-15T10:13:35.137Z,59.64
2022-12-15T10:23:39.813Z,59.33
2022-12-15T10:33:48.575Z,59.48
2022-12-15T10:44:30.300Z,59.55
2022-12-15T10:54:37.236Z,59.60
2022-12-15T11:04:41.761Z,59.18
2022-12-15T11:14:46.400Z,58.61
2022-12-15T11:24:55.386Z,59.47
2022-12-15T11:34:58.566Z,59.00
2022-12-15T11:45:04.907Z,59.33
2022-12-15T11:55:17.663Z,59.27
2022-12-15T12:05:39.262Z,59.31
2022-12-15T12:15:50.554Z,59.18
2022-12-15T12:26:02.757Z,59.36
2022-12-15T12:36:09.845Z,59.26
2022-12-15T12:46:17.527Z,59.53
2022-12-15T12:56:40.135Z,59.34
2022-12-15T13:07:07.788Z,58.75
2022-12-15T13:17:27.698Z,58.54
2022-12-15T13:27:38.170Z,58.55
2022-12-15T13:37:46.850Z,59.78
2022-12-15T13:47:55.778Z,59.78
2022-12-15T13:58:01.974Z,59.48
2022-12-15T14:08:11.267Z,59.73
2022-12-15T14:18:25.852Z,60.32
2022-12-15T14:28:32.777Z,61.33
2022-12-15T14:38:47.486Z,62.29
2022-12-15T14:48:57.324Z,62.90
2022-12-15T14:59:04.290Z,64.21
2022-12-15T15:09:20.750Z,64.01
2022-12-15T15:19:23.910Z,63.96
2022-12-15T15:29:39.466Z,64.87
2022-12-15T15:39:42.907Z,65.29
2022-12-15T15:49:47.927Z,65.38
2022-12-15T15:59:51.194Z,65.85
2022-12-15T16:09:56.043Z,66.44
2022-12-15T16:19:59.957Z,66.77
2022-12-15T16:30:10.817Z,66.90
2022-12-15T16:40:18.995Z,67.20
2022-12-15T16:50:26.725Z,67.54
2022-12-15T17:00:31.509Z,67.62
2022-12-15T17:10:36.251Z,67.61
2022-12-15T17:20:39.313Z,67.38
2022-12-15T17:30:43.826Z,68.02
2022-12-15T17:40:48.086Z,67.98
2022-12-15T17:50:54.485Z,67.79
2022-12-15T18:00:57.987Z,67.71
2022-12-15T18:11:02.442Z,67.90
2022-12-15T18:21:13.689Z,68.29
2022-12-15T18:31:21.531Z,68.44
2022-12-15T18:41:24.681Z,67.92
2022-12-15T18:51:30.886Z,68.06
2022-12-15T19:01:34.377Z,67.98
2022-12-15T19:11:39.680Z,67.73
2022-12-15T19:21:56.997Z,68.05
2022-12-15T19:32:01.906Z,68.48
2022-12-15T19:42:08.787Z,67.79
2022-12-15T19:52:17.664Z,68.76
2022-12-15T20:02:21.963Z,68.56
2022-12-15T20:12:27.371Z,68.93
2022-12-15T20:22:30.875Z,68.31
2022-12-15T20:32:38.486Z,68.54
2022-12-15T20:42:41.734Z,69.20
2022-12-15T20:52:46.248Z,69.94
2022-12-15T21:02:49.933Z,69.32
2022-12-15T21:12:56.419Z,68.96
2022-12-15T21:22:59.615Z,68.76
2022-12-15T21:33:04.287Z,68.84
2022-12-15T21:43:07.569Z,68.43
2022-12-15T21:53:16.847Z,68.52
2022-12-15T22:03:19.995Z,68.68
2022-12-15T22:13:24.793Z,68.12
2022-12-15T22:23:27.880Z,68.25
2022-12-15T22:33:32.318Z,68.65
2022-12-15T22:43:38.511Z,68.43
2022-12-15T22:53:43.276Z,68.98
2022-12-15T23:03:46.520Z,70.02
2022-12-15T23:13:51.011Z,69.50
2022-12-15T23:23:55.057Z,69.52
2022-12-15T23:33:59.501Z,68.82
2022-12-15T23:44:02.609Z,70.36
2022-12-15T23:54:07.729Z,71.41
